»·PEaware :: N427LJ KHAF-KMRY

N427LJ :: KHAF-KMRY

FLIGHT INFORMATION

Flight Status: Arrived
Operator: Privately registered:
United States
More flights under this callsign
Pilot: Anonymous 27948 (27948)
Aircraft: CESSNA 172 SKYHAWK
(C172)
More flights by this aircraft type
Origin: KHAF Half Moon Bay
United States
Destination: KMRY Monterey Peninsula
United States
More flights between these airports :: More routes between these airports
Route: OSI
File this flight plan on PilotEdge
Remarks:
Altitude:
(Current/Filed)
7,000ft
Speed:
(Current/Filed)
120kts
Departed: 24-Oct-20 02:43 PM
Arrived: 24-Oct-20 03:22 PM
Distance/Time
Traveled:
64nm/0:38
Distance/Time
To Go:
Arrived

Flight Plot

Page will automatically refresh every two minutes.

Flight plan parsing failed; only flown route is shown


Map Options




Map Legend


Flown Route
Filed Route
Departure Airport
Arrival Airport
Navaid (VOR, NDB)
Fix

Horizontal Profiles

Position Reports

Time Latitude Longitude Heading Altitude Ground
Speed
24-Oct-20 14:33 37.515383 -122.497167 307 47ft 0kts
24-Oct-20 14:34 37.515349 -122.498247 303 47ft 9kts
24-Oct-20 14:35 37.516315 -122.501273 299 52ft 13kts
24-Oct-20 14:36 37.518806 -122.504884 316 68ft 17kts
24-Oct-20 14:37 37.519190 -122.506192 209 70ft 0kts
24-Oct-20 14:38 37.519099 -122.506256 209 70ft 0kts
24-Oct-20 14:39 37.519083 -122.506267 209 70ft 0kts
24-Oct-20 14:40 37.518999 -122.506298 189 70ft 3kts
24-Oct-20 14:41 37.518653 -122.506623 222 70ft 10kts
24-Oct-20 14:42 37.506301 -122.493510 143 667ft 79kts
24-Oct-20 14:43 37.490321 -122.474769 135 1722ft 81kts
24-Oct-20 14:44 37.474267 -122.454840 135 2711ft 82kts
24-Oct-20 14:45 37.461049 -122.431698 118 3634ft 83kts
24-Oct-20 14:46 37.449821 -122.406044 119 4503ft 84kts
24-Oct-20 14:47 37.438159 -122.380213 119 5318ft 85kts
24-Oct-20 14:48 37.426267 -122.354199 119 6081ft 86kts
24-Oct-20 14:49 37.414177 -122.327891 120 6798ft 87kts
24-Oct-20 14:50 37.400030 -122.297321 120 7001ft 114kts
24-Oct-20 14:51 37.374912 -122.272930 154 7000ft 120kts
24-Oct-20 14:52 37.344077 -122.254936 155 7000ft 122kts
24-Oct-20 14:53 37.313039 -122.237634 156 6999ft 121kts
24-Oct-20 14:54 37.282299 -122.220695 156 6999ft 120kts
24-Oct-20 14:55 37.251540 -122.203803 156 6999ft 120kts
24-Oct-20 14:56 37.220643 -122.186860 156 7000ft 120kts
24-Oct-20 14:57 37.189934 -122.170039 156 7000ft 120kts
24-Oct-20 14:58 37.159146 -122.153190 156 7000ft 120kts
24-Oct-20 14:59 37.128420 -122.136390 156 7000ft 120kts
24-Oct-20 15:00 37.097594 -122.119550 156 7000ft 120kts
24-Oct-20 15:01 37.066898 -122.102796 156 7000ft 120kts
24-Oct-20 15:02 37.036123 -122.086015 156 7000ft 120kts
24-Oct-20 15:03 37.005318 -122.069244 156 7000ft 120kts
24-Oct-20 15:04 36.974520 -122.052481 156 7000ft 120kts
24-Oct-20 15:05 36.943777 -122.035761 156 6999ft 120kts
24-Oct-20 15:06 36.912901 -122.018991 156 6918ft 119kts
24-Oct-20 15:07 36.883155 -122.002887 156 6005ft 109kts
24-Oct-20 15:08 36.853529 -121.986826 156 4855ft 118kts
24-Oct-20 15:09 36.823475 -121.970538 156 3754ft 118kts
24-Oct-20 15:10 36.793874 -121.954496 156 2972ft 107kts
24-Oct-20 15:11 36.766469 -121.939631 156 2973ft 110kts
24-Oct-20 15:12 36.738076 -121.924282 156 2972ft 111kts
24-Oct-20 15:13 36.710289 -121.909282 156 2853ft 101kts
24-Oct-20 15:14 36.683768 -121.894985 156 2255ft 105kts
24-Oct-20 15:15 36.659170 -121.881688 156 1972ft 93kts
24-Oct-20 15:16 36.635317 -121.868786 155 1972ft 93kts
24-Oct-20 15:17 36.616122 -121.845629 121 1779ft 102kts
24-Oct-20 15:18 36.601181 -121.814722 120 1389ft 105kts
24-Oct-20 15:19 36.583175 -121.813155 235 936ft 76kts
24-Oct-20 15:20 36.583944 -121.835390 293 242ft 49kts
24-Oct-20 15:21 36.585169 -121.841439 248 230ft 0kts
24-Oct-20 15:23 36.585231 -121.842040 291 226ft 17kts
24-Oct-20 15:24 36.587551 -121.848531 291 183ft 16kts
24-Oct-20 15:25 36.589491 -121.855106 246 161ft 18kts

Navigation Log

Ident Type
Flight plan parsing failed, navigation log unavailable